Green River, UT (84525)

11:44 AM MST on January 21, 2017 (GMT -0700)
Green River | | Change Station
Active Advisory: Winter Weather Advisory

Elev 4072 ft 38.97 °N, 110.15 °W | Updated 4 minutes ago

Overcast
Overcast
37.4 °F
Feels Like 37 °F
N
2.0
Wind Variable Wind from SSW
Gusts 2.0 mph

Today
High -- | Low -- °F
--% Chance of Precip.
Yesterday
High -- | Low -- °F
Precip. -- in
Pressure 29.42 in
Visibility 10.0 miles
Clouds Few 1000 ft
Scattered Clouds 2200 ft
Mostly Cloudy 3600 ft
Windchill 37 °F
Dew Point 35 °F
Humidity 92%
Rainfall 0.13 in
Snow Depth Not available.
7:34 AM 5:29 PM
Waning Crescent, 33% visible
SPECI KCNY 211831Z AUTO 00000KT 10SM FEW010 SCT022 BKN036 03/02 A2942 RMK AO2 RAB06E07B22E23SNE22 P0000 T00280017
Pressure 29.42 in
Visibility 10.0 miles
Clouds Few 1000 ft
Scattered Clouds 2200 ft
Mostly Cloudy 3600 ft
Windchill 37 °F
Dew Point 35 °F
Humidity 92%
Rainfall 0.13 in
Snow Depth Not available.
7:34 AM 5:29 PM
Waning Crescent, 33% visible
SPECI KCNY 211831Z AUTO 00000KT 10SM FEW010 SCT022 BKN036 03/02 A2942 RMK AO2 RAB06E07B22E23SNE22 P0000 T00280017

Get Your Daily Forecast Email!

Thanks for signing up!

Be on the lookout for a verification email in your inbox.

You'll start receiving the daily forecast at 8 AM.

×

10-Day Weather Forecast

Almanac

Astronomy

Jan. 21, 2017 Rise Set
Actual Time
Civil Twilight
Nautical Twilight
Astronomical Twilight
Moon
Length of Visible Light
Length of Day
Tomorrow will be .
, % of the Moon is Illuminated

Today's Extremes

State Highs State Lows

Community

WunderPhotos

Upload Photos

1,962,540 photos uploaded!

WunderBlog® & News

Nearby

Air Quality

  Air Quality AQ Index Pollutant
Not available.

Snow Depth

Station Depth Elevation

Earthquake Activity

City Distance Mag. Time & Date
Minimum magnitude displayed is 2.5.

Coastal Water Temperatures

Place Temperature

Stations

Nearby Weather Stations

Station Location Temp. Windchill Dew Point Humidity Wind Precip. Elev Updated Type
                   

Watches & Warnings

Winter Weather Advisory
Issued: 2:41 AM MST Jan. 21, 2017 – National Weather Service

... Winter Weather Advisory remains in effect until noon MST
today...

* affected area... the western Uinta Basin... Castle country... the
San Rafael Swell and the south central valleys.

* Snow accumulations... an additional 1-3 inches of snow.

* Timing... snow will continue heavy at times through this
morning... gradually tapering off this afternoon.

* Impacts... significant travel impacts are anticipated for through
this morning. Accumulating Road snow will create hazardous
travel conditions throughout the advisory area.

Precautionary/preparedness actions...

A Winter Weather Advisory for snow means that snow accumulations
will cause primarily travel difficulties. Be prepared for snow
covered roads. Use caution while driving.

For winter Road conditions from the Utah Department of
Transportation... visit
http://www.Udottraffic.Utah.Gov/roadweatherforecast.Aspx or dial
511.